Big Bear Station Historical Data
Daily Summary for February 8, 2019 Units:  Metric    English   Both
Next Day »
Daily Weekly Monthly Yearly Custom
  High: Low: Average:
Temperature: 5.5 °C -12 °C -5.7 °C
Dew Point: -4 °C -12.8 °C -9.5 °C
Humidity: 96% 42% 77%
Wind Speed: 8.5km/h 0km/h 1.3km/h
Wind Gust: -1607.7km/h - -
Wind- - West
Pressure: 795 hPa 790.3 hPa -
Precipitation: 0.25 mm    
Historical Graphs
 
 
Tabular Data for February 8, 2019
Time Temperature Dew Point Pressure Wind Wind Speed Wind Gust Humidity Rainfall Rate (Hourly)
00:05 -10.1 °C -10.8 °C 795 hPa Calm   -1607.7 km/h 95% 0 mm
00:20 -10.1 °C -10.6 °C 795 hPa Calm   -1607.7 km/h 96% 0 mm
00:35 -10.3 °C -10.8 °C 795 hPa Calm   -1607.7 km/h 96% 0 mm
00:50 -10.4 °C -11.1 °C 795 hPa Calm   -1607.7 km/h 95% 0 mm
01:05 -10.6 °C -11.3 °C 795 hPa Calm   -1607.7 km/h 95% 0 mm
01:21 -10.7 °C -11.2 °C 795 hPa Calm   -1607.7 km/h 96% 0 mm
01:36 -10.8 °C -11.4 °C 794.7 hPa Calm   -1607.7 km/h 95% 0 mm
01:51 -10.7 °C -11.2 °C 794.7 hPa Calm   -1607.7 km/h 96% 0 mm
02:06 -10.7 °C -11.2 °C 794.7 hPa Calm   -1607.7 km/h 96% 0 mm
02:21 -11 °C -11.5 °C 794.4 hPa Calm   -1607.7 km/h 96% 0 mm
02:37 -10.9 °C -11.4 °C 794.4 hPa Calm   -1607.7 km/h 96% 0 mm
02:52 -11.2 °C -11.9 °C 794 hPa Calm   -1607.7 km/h 95% 0 mm
03:07 -11.3 °C -11.9 °C 794 hPa Calm   -1607.7 km/h 95% 0 mm
03:22 -11.5 °C -12.2 °C 794 hPa Calm   -1607.7 km/h 95% 0 mm
03:38 -11.5 °C -12.2 °C 794 hPa Calm   -1607.7 km/h 95% 0 mm
03:53 -11.6 °C -12.3 °C 794 hPa Calm   -1607.7 km/h 95% 0 mm
04:08 -11.5 °C -12.2 °C 794 hPa Calm   -1607.7 km/h 95% 0 mm
04:23 -11.6 °C -12.3 °C 794 hPa Calm   -1607.7 km/h 95% 0 mm
04:38 -11.9 °C -12.5 °C 793.7 hPa Calm   -1607.7 km/h 95% 0 mm
04:54 -11.9 °C -12.5 °C 793.7 hPa Calm   -1607.7 km/h 95% 0 mm
05:09 -12 °C -12.8 °C 793.7 hPa Calm   -1607.7 km/h 94% 0 mm
05:24 -11.7 °C -12.4 °C 793.7 hPa Calm   -1607.7 km/h 95% 0 mm
05:39 -11.9 °C -12.7 °C 793.7 hPa Calm   -1607.7 km/h 94% 0 mm
05:54 -11.9 °C -12.5 °C 793.7 hPa Calm   -1607.7 km/h 95% 0 mm
06:10 -12 °C -12.8 °C 793.7 hPa Calm   -1607.7 km/h 94% 0 mm
06:25 -11.9 °C -12.5 °C 793.7 hPa Calm   -1607.7 km/h 95% 0 mm
06:40 -11.6 °C -12.3 °C 793.7 hPa Calm   -1607.7 km/h 95% 0 mm
06:55 -11.6 °C -12.3 °C 793.7 hPa Calm   -1607.7 km/h 95% 0 mm
07:10 -11.8 °C -12.6 °C 793.7 hPa Calm   -1607.7 km/h 94% 0 mm
07:26 -11.6 °C -12.4 °C 793.7 hPa Calm   -1607.7 km/h 94% 0 mm
07:41 -11.5 °C -12.3 °C 793.7 hPa Calm   -1607.7 km/h 94% 0 mm
07:56 -11.3 °C -12.1 °C 793.7 hPa Calm   -1607.7 km/h 94% 0 mm
08:11 -10.5 °C -11.3 °C 793.7 hPa Calm   -1607.7 km/h 94% 0 mm
08:26 -10.1 °C -10.9 °C 793.7 hPa Calm   -1607.7 km/h 94% 0 mm
08:42 -9.5 °C -10.3 °C 793.7 hPa Calm   -1607.7 km/h 94% 0 mm
08:57 -8.4 °C -9.1 °C 793.7 hPa Calm   -1607.7 km/h 95% 0 mm
09:12 -7.1 °C -7.8 °C 793.7 hPa Calm   -1607.7 km/h 95% 0 mm
09:27 -5.7 °C -6.4 °C 793.7 hPa Calm   -1607.7 km/h 95% 0 mm
09:43 -4.2 °C -5.2 °C 793.7 hPa Calm   -1607.7 km/h 93% 0 mm
09:58 -2.8 °C -4.7 °C 793.7 hPa WNW 1.8 km/h -1607.7 km/h 87% 0 mm
10:13 -1.5 °C -4 °C 793.7 hPa Calm   -1607.7 km/h 83% 0 mm
10:28 0 °C -5 °C 793.7 hPa NW 7.6 km/h -1607.7 km/h 69% 0 mm
10:43 0.8 °C -5.9 °C 793.7 hPa NNW 4.3 km/h -1607.7 km/h 61% 0 mm
10:59 1.3 °C -5.8 °C 793.3 hPa NNW 7.6 km/h -1607.7 km/h 59% 0 mm
11:14 1.6 °C -6.7 °C 793.3 hPa NNW 8.5 km/h -1607.7 km/h 54% 0 mm
11:29 1.8 °C -7.3 °C 793.3 hPa NW 4.3 km/h -1607.7 km/h 51% 0 mm
11:45 2.2 °C -6.6 °C 793 hPa WNW 2.7 km/h -1607.7 km/h 52% 0 mm
12:00 3.3 °C -6.2 °C 793 hPa SW 1.8 km/h -1607.7 km/h 50% 0 mm
12:15 3.8 °C -6.8 °C 792.7 hPa SW 3.5 km/h -1607.7 km/h 46% 0 mm
12:30 4.6 °C -6.6 °C 792.7 hPa NW 6 km/h -1607.7 km/h 44% 0 mm
12:45 5 °C -6.9 °C 792.3 hPa WNW 6 km/h -1607.7 km/h 42% 0 mm
13:01 5.5 °C -5.8 °C 792.3 hPa Calm   -1607.7 km/h 44% 0 mm
13:16 4.3 °C -6.6 °C 792 hPa WNW 4.3 km/h -1607.7 km/h 45% 0 mm
13:32 3 °C -7.2 °C 792.3 hPa NNW 6 km/h -1607.7 km/h 47% 0 mm
13:47 2.8 °C -7.4 °C 792.3 hPa WNW 1.8 km/h -1607.7 km/h 47% 0 mm
14:02 2.8 °C -6.6 °C 792 hPa West 4.3 km/h -1607.7 km/h 50% 0 mm
14:18 2.8 °C -5.9 °C 792.3 hPa West 6.8 km/h -1607.7 km/h 53% 0 mm
14:33 2.1 °C -6.2 °C 792.3 hPa NE 3.5 km/h -1607.7 km/h 54% 0 mm
14:48 1.6 °C -6.2 °C 792 hPa NNW 6 km/h -1607.7 km/h 56% 0 mm
15:05 1 °C -5.9 °C 792 hPa SE 3.5 km/h -1607.7 km/h 60% 0 mm
15:20 1 °C -5.3 °C 792 hPa Calm   -1607.7 km/h 63% 0 mm
15:35 0.7 °C -5.3 °C 791.6 hPa SSW 3.5 km/h -1607.7 km/h 64% 0 mm
15:50 0.3 °C -5.3 °C 791.6 hPa NNW 5.1 km/h -1607.7 km/h 66% 0 mm
16:05 -0.1 °C -5.5 °C 791.3 hPa Calm   -1607.7 km/h 67% 0 mm
16:21 -0.5 °C -5.5 °C 791.3 hPa Calm   -1607.7 km/h 69% 0 mm
16:36 -0.8 °C -5.6 °C 791.3 hPa NW 2.7 km/h -1607.7 km/h 70% 0 mm
16:51 -1.2 °C -6 °C 791.3 hPa Calm   -1607.7 km/h 70% 0 mm
17:06 -1.7 °C -6.5 °C 791.3 hPa Calm   -1607.7 km/h 70% 0 mm
17:21 -2.3 °C -6.8 °C 791 hPa Calm   -1607.7 km/h 71% 0 mm
17:36 -2.8 °C -7.5 °C 791 hPa Calm   -1607.7 km/h 70% 0 mm
17:54 -3.4 °C -7.6 °C 791 hPa Calm   -1607.7 km/h 73% 0 mm
18:09 -4 °C -7.8 °C 791 hPa Calm   -1607.7 km/h 75% 0 mm
18:25 -4.6 °C -8.1 °C 791 hPa Calm   -1607.7 km/h 77% 0 mm
18:40 -5.1 °C -8.8 °C 791 hPa Calm   -1607.7 km/h 75% 0 mm
18:55 -5.4 °C -9.1 °C 791 hPa Calm   -1607.7 km/h 75% 0 mm
19:10 -5.7 °C -9.4 °C 791 hPa Calm   -1607.7 km/h 75% 0 mm
19:25 -6.1 °C -10.2 °C 791 hPa Calm   -1607.7 km/h 73% 0 mm
19:41 -6.3 °C -10.5 °C 791 hPa Calm   -1607.7 km/h 72% 0 mm
19:56 -6.6 °C -11.2 °C 791 hPa Calm   -1607.7 km/h 70% 0 mm
20:11 -6.7 °C -11.7 °C 791 hPa Calm   -1607.7 km/h 68% 0 mm
20:26 -6.8 °C -11.5 °C 791 hPa Calm   -1607.7 km/h 69% 0 mm
20:41 -6.9 °C -12 °C 791 hPa Calm   -1607.7 km/h 67% 0 mm
20:57 -6.8 °C -12.1 °C 791 hPa Calm   -1607.7 km/h 66% 0 mm
21:12 -6.7 °C -12.2 °C 791 hPa Calm   -1607.7 km/h 65% 0 mm
21:27 -6.5 °C -12.4 °C 791 hPa Calm   -1607.7 km/h 63% 0 mm
21:42 -6.4 °C -11.5 °C 791 hPa Calm   -1607.7 km/h 67% 0 mm
21:57 -6.6 °C -11.2 °C 790.6 hPa Calm   -1607.7 km/h 70% 0 mm
22:13 -6.8 °C -11.5 °C 790.6 hPa Calm   -1607.7 km/h 69% 0 mm
22:28 -6.9 °C -11.6 °C 790.6 hPa Calm   -1607.7 km/h 69% 0 mm
22:43 -6.9 °C -11.3 °C 790.6 hPa South 2.7 km/h -1607.7 km/h 71% 0 mm
22:58 -7.2 °C -11.6 °C 790.6 hPa Calm   -1607.7 km/h 71% 0 mm
23:14 -7.5 °C -11.5 °C 790.6 hPa SSW 4.3 km/h -1607.7 km/h 73% 0 mm
23:29 -7.8 °C -11.4 °C 790.3 hPa SSW 3.5 km/h -1607.7 km/h 75% 0 mm
23:44 -8 °C -11.7 °C 790.3 hPa South 3.5 km/h -1607.7 km/h 75% 0 mm
23:59 -8.3 °C -12.3 °C 790.3 hPa SSW 4.3 km/h -1607.7 km/h 73% 0 mm
Big Bear CA Weather